VOBZ/VGA METAR and TAF weather

Enter ICAO airport designator
Station Type Date Time Source
VOBZ METAR 2019/06/26 17:30 UTC NOAA

VOBZ 261730Z 00000KT 3000 HZ FEW020 28/26 Q1004 NOSIG


Station Type Date Time Source
VOBZ Decoded METAR 2019/06/26 17:30 UTC NOAA

Vijayawada / Gannavaram, India (VOBZ) 16-32N 080-48E 24M
Jun 26, 2019 - 01:30 PM EDT / 2019.06.26 1730 UTC
Wind: Calm:0
Visibility: 1 mile(s):0
Sky conditions: mostly clear
Weather: haze
Temperature: 82 F (28 C)
Dew Point: 78 F (26 C)
Relative Humidity: 88%
Pressure (altimeter): 29.65 in. Hg (1004 hPa)
ob: VOBZ 261730Z 00000KT 3000 HZ FEW020 28/26 Q1004 NOSIG
cycle: 17

Station Type Date Time Source
VOBZ TAF 2019/05/11 06:00 UTC NOAA

TAF VOBZ 110500Z 1106/1115 12005KT 6000 FEW020 SCT100
TEMPO 1106/1110 19006KT 5000 HZ SCT025 FEW030TCU
TEMPO 1110/1115 14006KT 4000 HZ FEW025 FEW030CB SCT100

Example: see airport list